ADDS METAR Data INFO
IDs: Format: Raw Decoded Include TAF

Data at: 2114 UTC 19 Jul 2018

KHZR 192055Z AUTO 26006KT 10SM CLR 33/24 A2991 RMK AO2 T03280242
KHZR 192035Z AUTO 27005KT 10SM CLR 33/24 A2991 RMK AO2 T03250239
KHZR 192015Z AUTO 25005KT 10SM CLR 33/23 A2992 RMK AO2 T03250233
KHZR 191955Z AUTO 26006KT 10SM CLR 33/22 A2992 RMK AO2 T03270221
KHZR 191935Z AUTO 27006KT 10SM CLR 32/24 A2993 RMK AO2 LTG DSNT E T03240242
KHZR 191915Z AUTO 00000KT 10SM CLR 32/24 A2993 RMK AO2 T03190237
KHZR 191855Z AUTO 23005KT 10SM CLR 32/25 A2994 RMK AO2 T03180247
KHZR 191835Z AUTO 27005KT 10SM CLR 31/24 A2994 RMK AO2 LTG DSNT E T03130239
KHZR 191815Z AUTO 26006KT 10SM SCT024 31/25 A2995 RMK AO2 T03110248
KHZR 191755Z AUTO 28003KT 10SM SCT024 31/25 A2996 RMK AO2 T03070247 10308 20246
KHZR 191735Z AUTO 23005KT 10SM SCT022 31/25 A2996 RMK AO2 T03070250
KHZR 191715Z AUTO 24005KT 10SM SCT020 30/25 A2997 RMK AO2 T03010248
KHZR 191655Z AUTO 23005KT 10SM SCT020 30/25 A2997 RMK AO2 T02970246
KHZR 191635Z AUTO 00000KT 10SM SCT020 29/25 A2997 RMK AO2 T02940247
KHZR 191615Z AUTO 29004KT 10SM CLR 29/25 A2998 RMK AO2 T02940245
KHZR 191555Z AUTO 27005KT 10SM CLR 29/25 A2998 RMK AO2 T02860246
KHZR 191535Z AUTO 27004KT 10SM CLR 28/25 A2998 RMK AO2 T02810246
KHZR 191515Z AUTO 29004KT 10SM CLR 28/25 A2998 RMK AO2 T02800249
KHZR 191455Z AUTO 28006KT 10SM SCT010 28/25 A2998 RMK AO2 T02750251
KHZR 191435Z AUTO 28003KT 10SM SCT010 27/25 A2998 RMK AO2 T02740251
KHZR 191415Z AUTO 26003KT 10SM CLR 28/26 A2998 RMK AO2 T02750255
KHZR 191355Z AUTO 00000KT 10SM CLR 27/25 A2999 RMK AO2 T02680254
KHZR 191335Z AUTO 00000KT 10SM CLR 26/25 A2999 RMK AO2 T02610251
KHZR 191315Z AUTO 00000KT 7SM CLR 26/25 A2998 RMK AO2 T02550249
KHZR 191255Z AUTO 00000KT 7SM SCT014 25/25 A2998 RMK AO2 T02510247
KHZR 191235Z AUTO 00000KT 5SM BR SCT014 SCT120 25/25 A2998 RMK AO2 T02480245
KHZR 191215Z AUTO 00000KT 7SM CLR 25/25 A2997 RMK AO2 T02480245
KHZR 191155Z AUTO 00000KT 5SM BR SCT014 25/24 A2997 RMK AO2 7//// T02450242 10246 20236
KHZR 191135Z AUTO 00000KT 7SM CLR 25/24 A2996 RMK AO2 T02460243
KHZR 191115Z AUTO 00000KT 7SM CLR 24/24 A2995 RMK AO2 T02430240
KHZR 191055Z AUTO 00000KT 5SM BR CLR 24/24 A2995 RMK AO2 T02420240
KHZR 191035Z AUTO 00000KT 5SM BR CLR 24/24 A2994 RMK AO2 T02400237
KHZR 191015Z AUTO 00000KT 5SM BR CLR 24/24 A2994 RMK AO2 T02400237
KHZR 190955Z AUTO 00000KT 5SM BR CLR 24/24 A2994 RMK AO2 T02420239
KHZR 190935Z AUTO 00000KT 7SM CLR 24/24 A2993 RMK AO2 T02430240
KHZR 190915Z AUTO 00000KT 7SM CLR 24/24 A2992 RMK AO2 T02430239
KHZR 190855Z AUTO 00000KT 10SM CLR 25/24 A2992 RMK AO2 T02450240
KHZR 190835Z AUTO 00000KT 7SM CLR 24/24 A2991 RMK AO2 T02410239
KHZR 190815Z AUTO 00000KT 7SM CLR 24/24 A2991 RMK AO2 T02410238
KHZR 190755Z AUTO 00000KT 7SM CLR 24/24 A2991 RMK AO2 T02410238
KHZR 190735Z AUTO 00000KT 5SM BR CLR 24/24 A2991 RMK AO2 T02380235
KHZR 190715Z AUTO 00000KT 7SM CLR 24/23 A2992 RMK AO2 T02370234
KHZR 190655Z AUTO 00000KT 10SM CLR 24/23 A2991 RMK AO2 T02370233
KHZR 190635Z AUTO 00000KT 10SM CLR 24/23 A2992 RMK AO2 T02370232
KHZR 190615Z AUTO 00000KT 10SM CLR 24/23 A2992 RMK AO2 T02370230
KHZR 190555Z AUTO 00000KT 10SM CLR 24/23 A2992 RMK AO2 60001 T02370231 10255 20237
KHZR 190535Z AUTO 00000KT 10SM CLR 24/23 A2993 RMK AO2 T02390231
KHZR 190515Z AUTO 22003KT 10SM CLR 24/23 A2994 RMK AO2 T02420233
KHZR 190455Z AUTO 21003KT 10SM CLR 24/23 A2994 RMK AO2 T02400233
KHZR 190435Z AUTO 00000KT 10SM CLR 25/23 A2994 RMK AO2 T02450232
KHZR 190415Z AUTO 00000KT 10SM CLR 25/23 A2995 RMK AO2 T02450232
KHZR 190355Z AUTO 00000KT 10SM CLR 24/24 A2995 RMK AO2 P0001 T02420235
KHZR 190335Z AUTO 00000KT 10SM CLR 24/24 A2996 RMK AO2 P0001 T02440236
KHZR 190315Z AUTO 00000KT 10SM CLR 25/23 A2996 RMK AO2 T02500230
KHZR 190255Z AUTO 00000KT 10SM CLR 25/23 A2996 RMK AO2 T02490230
KHZR 190235Z AUTO 16003KT 10SM CLR 25/23 A2996 RMK AO2 T02470232
KHZR 190215Z AUTO 14004KT 10SM CLR 25/23 A2996 RMK AO2 T02480233
KHZR 190155Z AUTO 14003KT 10SM CLR 25/24 A2995 RMK AO2 T02480238
KHZR 190135Z AUTO 00000KT 10SM CLR 25/24 A2995 RMK AO2 T02500239
KHZR 190115Z AUTO 00000KT 10SM CLR 25/24 A2995 RMK AO2 LTG DSNT NE AND E T02520240
KHZR 190055Z AUTO 00000KT 10SM CLR 25/24 A2995 RMK AO2 T02510240
KHZR 190035Z AUTO 00000KT 10SM CLR 25/24 A2995 RMK AO2 LTG DSNT E T02540235
KHZR 190015Z AUTO 00000KT 10SM CLR 25/23 A2995 RMK AO2 LTG DSNT E T02520229
KHZR 182355Z AUTO 00000KT 10SM CLR 25/23 A2995 RMK AO2 LTG DSNT E 6//// T02520230
KHZR 182335Z AUTO 19004KT 10SM CLR 26/24 A2996 RMK AO2 LTG DSNT E T02610237
KHZR 182315Z AUTO 00000KT 10SM CLR 26/23 A2996 RMK AO2 LTG DSNT E T02620234
KHZR 182255Z AUTO 00000KT 10SM VCTS SCT031 SCT042 SCT060 26/23 A2995 RMK AO2 LTG DSNT E THRU SW T02590230
KHZR 182235Z AUTO 23007G15KT 10SM TS SCT031 SCT036 BKN043 26/24 A2996 RMK AO2 LTG DSNT ALQS T02630237
KHZR 182215Z AUTO 22005KT 10SM VCTS SCT090 26/23 A2994 RMK AO2 LTG DSNT ALQS T02610225
KHZR 182155Z AUTO 19006KT 10SM VCTS SCT004 SCT010 BKN090 26/23 A2995 RMK AO2 LTG DSNT ALQS P0001 T02570228
KHZR 182135Z AUTO 27011G27KT 2 1/2SM +RA SCT010 BKN028 BKN035 27/23 A2997 RMK AO2 LTG DSNT NE T02720231
KHZR 182115Z AUTO 26003KT 10SM CLR 31/25 A2994 RMK AO2 LTG DSNT NE T03130249
KHZR 182055Z AUTO 25005KT 10SM SCT029 32/25 A2995 RMK AO2 LTG DSNT NE AND W T03200248
KHZR 182035Z AUTO 25007KT 10SM SCT029 SCT034 32/25 A2995 RMK AO2 LTG DSNT NE T03210250
KHZR 182015Z AUTO 30007KT 10SM CLR 32/24 A2996 RMK AO2 LTG DSNT SE T03160237
KHZR 181955Z AUTO 28007KT 10SM SCT025 32/26 A2996 RMK AO2 LTG DSNT SE THRU W T03170257
KHZR 181935Z AUTO 25004KT 10SM BKN025 31/25 A2997 RMK AO2 T03120251
KHZR 181915Z AUTO 26006KT 10SM SCT025 SCT090 31/25 A2998 RMK AO2 LTG DSNT N AND S T03120252
KHZR 181855Z AUTO 26006KT 10SM SCT025 SCT090 31/25 A3000 RMK AO2 T03100248
KHZR 181835Z AUTO 28004KT 10SM SCT090 31/25 A3000 RMK AO2 T03060247
KHZR 181815Z AUTO 28003KT 10SM CLR 30/24 A3001 RMK AO2 T02980242
KHZR 181755Z AUTO 31004KT 10SM SCT034 SCT048 SCT070 30/24 A3002 RMK AO2 T02970243 10305 20252
KHZR 181735Z AUTO 29003KT 10SM SCT034 SCT100 30/24 A3002 RMK AO2 T02950240
KHZR 181715Z AUTO 29005KT 10SM CLR 30/24 A3002 RMK AO2 T03000241
KHZR 181655Z AUTO 30005KT 10SM SCT025 30/24 A3002 RMK AO2 T03030240
KHZR 181635Z AUTO 27005KT 10SM SCT021 SCT026 30/24 A3002 RMK AO2 T03030243
KHZR 181615Z AUTO 28005KT 10SM CLR 30/25 A3002 RMK AO2 T02990251
KHZR 181555Z AUTO 29006KT 10SM SCT019 29/25 A3002 RMK AO2 T02900245
KHZR 181535Z AUTO 29006KT 10SM SCT019 30/25 A3003 RMK AO2 T02950246
KHZR 181515Z AUTO 25007KT 10SM SCT017 29/24 A3004 RMK AO2 T02880244
KHZR 181455Z AUTO 28007KT 10SM CLR 28/24 A3004 RMK AO2 T02810244
KHZR 181435Z AUTO 27005KT 10SM SCT013 28/25 A3004 RMK AO2 T02770247
KHZR 181415Z AUTO 26005KT 10SM SCT011 28/25 A3003 RMK AO2 T02760249
KHZR 181355Z AUTO 27004KT 10SM BKN011 27/25 A3004 RMK AO2 T02720251
KHZR 181335Z AUTO 00000KT 10SM BKN009 27/25 A3004 RMK AO2 LTG DSNT N T02680251
KHZR 181315Z AUTO 00000KT 10SM SCT009 SCT012 26/25 A3003 RMK AO2 T02630249
KHZR 181255Z AUTO 00000KT 10SM CLR 26/25 A3002 RMK AO2 T02600248
KHZR 181235Z AUTO 00000KT 10SM SCT090 26/25 A3002 RMK AO2 T02570249
KHZR 181215Z AUTO 00000KT 10SM BKN090 26/25 A3002 RMK AO2 T02550246
KHZR 181155Z AUTO 00000KT 10SM BKN090 BKN120 25/25 A3002 RMK AO2 7//// T02520245 10253 20246
KHZR 181135Z AUTO 22003KT 7SM OVC090 25/25 A3002 RMK AO2 T02500246
KHZR 181115Z AUTO 00000KT 7SM SCT060 OVC090 25/25 A3002 RMK AO2 T02500246
KHZR 181055Z AUTO 00000KT 10SM BKN090 25/25 A3002 RMK AO2 T02500245
KHZR 181035Z AUTO 00000KT 10SM BKN090 25/25 A3002 RMK AO2 T02510245
KHZR 181015Z AUTO 20003KT 10SM OVC090 25/24 A3001 RMK AO2 T02510243
KHZR 180955Z AUTO 19003KT 10SM BKN090 BKN110 25/24 A3000 RMK AO2 T02510243
KHZR 180935Z AUTO 20003KT 10SM BKN090 25/24 A3000 RMK AO2 T02500242
KHZR 180915Z AUTO 00000KT 10SM SCT100 SCT120 25/24 A3000 RMK AO2 T02470241